This is the latest recevied weather packets stored in our database for station/object KC4JIR. If no packets are shown the sender has not sent any weather packets the latest 10 day(s).
| Time | Temp. | Humidity | Pressure | Rain* | Wind** | Luminosity | Snow |
|---|---|---|---|---|---|---|---|
| 1787798683 | 25° C | 91% | 1013.1 hPa | 0 mm | - | 0 W/m² | - |
| 1787798378 | 25° C | 91% | 1013.1 hPa | 0 mm | - | 0 W/m² | - |
| 1787798073 | 25° C | 91% | 1013.1 hPa | 0 mm | - | 0 W/m² | - |
| 1787797772 | 25° C | 90% | 1013.3 hPa | 0 mm | - | 0 W/m² | - |
| 1787797467 | 25.56° C | 90% | 1013.1 hPa | 0 mm | - | 0 W/m² | - |
| 1787797162 | 25.56° C | 90% | 1013.2 hPa | 0 mm | - | 0 W/m² | - |
| 1787795645 | 26.11° C | 88% | 1012.6 hPa | 0 mm | - | 0 W/m² | - |
| 1787795341 | 26.11° C | 88% | 1012.8 hPa | 0 mm | - | 0 W/m² | - |
| 1787795039 | 26.11° C | 88% | 1012.9 hPa | 0 mm | - | 0 W/m² | - |
| 1787794734 | 26.11° C | 88% | 1012.7 hPa | 0 mm | - | 0 W/m² | - |
| 1787794430 | 26.67° C | 87% | 1012.9 hPa | 0 mm | - | 0 W/m² | - |
| 1787794125 | 27.22° C | 87% | 1012.8 hPa | 0 mm | - | 0 W/m² | - |
| 1787793821 | 27.22° C | 83% | 1013 hPa | 0 mm | - | 0 W/m² | - |
| 1787793516 | 27.22° C | 83% | 1013 hPa | 0 mm | - | 0 W/m² | - |
| 1787793216 | 27.78° C | 82% | 1012.9 hPa | 0 mm | - | 0 W/m² | - |
| 1787792911 | 27.22° C | 82% | 1012.8 hPa | 0 mm | - | 0 W/m² | - |
| 1787784405 | 30.56° C | 78% | 1012.2 hPa | 0 mm | - | 23 W/m² | - |
| 1787784105 | 30.56° C | 78% | 1012.2 hPa | 0 mm | - | 23 W/m² | - |
| 1787783801 | 31.11° C | 75% | 1012.1 hPa | 0 mm | - | 26 W/m² | - |
| 1787783496 | 31.67° C | 73% | 1012.2 hPa | 0 mm | - | 30 W/m² | - |
| 1787783191 | 32.22° C | 67% | 1012.3 hPa | 0 mm | - | 116 W/m² | - |
| 1787782886 | 32.22° C | 67% | 1012.2 hPa | 0 mm | - | 44 W/m² | - |
| 1787782585 | 32.22° C | 69% | 1012 hPa | 0 mm | - | 194 W/m² | - |
| 1787782280 | 32.22° C | 69% | 1012 hPa | 0 mm | - | 194 W/m² | - |
| 1787781672 | 32.78° C | 67% | 1011.9 hPa | 0 mm | - | 260 W/m² | - |
* Rain latest hour (hover to see other rain measurements)
** Current wind speed in m/s (hover to see current wind gust speed)